Main page
METAR-TAF:

METAR-TAF

Airports :

Cherbourg, France

Cherbourg – Maupertus Airport

latitude: 49-39N, longitude: 001-28W, elevation: 138 m

Current weather observation

The report was made 16 minutes ago, at 18:30 UTC
Wind 9 kt from the East/Northeast
Temperature 9°C
Humidity 87%
Pressure 1019 hPa
Visibility: 9000 m

METAR: LFRC 261830Z AUTO 06009KT 9000 NSC 09/07 Q1019

Time: 20:46 (18:46 UTC)

Forecast

The report was made 4 hours and 46 minutes ago, at 14:00 UTC
Forecast valid from 26 at 15 UTC to 26 at 24 UTC
Wind 12 kt from the East/Northeast
Visibility 10 km or more
no clouds below 1500 m and no cumulonimbus
Temporary
from 26 at 22 UTC to 26 at 24 UTC
Visibility: 3000 m
mist

TAF: LFRC 261400Z 2615/2624 07012KT CAVOK TEMPO 2622/2624 3000 BR

Weather observations and forecasts of more than 4000 airports (METAR and TAF reports).

The available stations are represented by yellow and red dots on the map.

Hover mouse over dot to see the name of the station.

Then click to see weather observations and forecasts.

To change the map : click on the green buttons with a black cross to zoom in, on the green button with a dash to zoom out, or on the green arrows for adjacent maps.


METAR-TAF: